Time;durP1;ratioP1;P1;durP2;ratioP2;P2;SDS_P1;SDS_P2;PMS_P1;PMS_P2;Temp;Humidity;BMP_temperature;BMP_pressure;BME280_temperature;BME280_humidity;BME280_pressure;Samples;Min_cycle;Max_cycle;Signal;HPM_P1;HPM_P2
2021/03/04 00:02:18;;;;;;;23.10;15.27;;;6.90;99.90;;;;;;5012440;28;20441;-74
2021/03/04 00:04:44;;;;;;;27.50;14.50;;;6.90;99.90;;;;;;5010726;28;20398;-74
2021/03/04 00:07:10;;;;;;;24.08;13.77;;;6.90;99.90;;;;;;5010643;28;20030;-74
2021/03/04 00:09:36;;;;;;;23.83;13.65;;;6.90;99.90;;;;;;5011592;28;20092;-74
2021/03/04 00:12:02;;;;;;;25.05;15.90;;;7.00;99.90;;;;;;5011892;28;20037;-74
2021/03/04 00:14:28;;;;;;;29.98;18.67;;;6.90;99.40;;;;;;5012218;28;20496;-74
2021/03/04 00:16:54;;;;;;;26.27;17.52;;;6.90;99.60;;;;;;5010210;28;20044;-74
2021/03/04 00:19:20;;;;;;;24.80;16.00;;;6.80;99.60;;;;;;5011758;28;20096;-74
2021/03/04 00:21:46;;;;;;;21.15;15.63;;;6.80;99.70;;;;;;5012079;28;20025;-74
2021/03/04 00:24:12;;;;;;;23.00;16.33;;;6.80;99.50;;;;;;5011695;28;20452;-74
2021/03/04 00:26:38;;;;;;;27.27;17.73;;;6.70;99.70;;;;;;5012901;28;20026;-74
2021/03/04 00:29:04;;;;;;;25.63;16.95;;;6.90;99.90;;;;;;5011569;28;20021;-74
2021/03/04 00:31:31;;;;;;;22.95;18.65;;;6.90;98.80;;;;;;5011846;28;20045;-74
2021/03/04 00:33:56;;;;;;;27.48;20.77;;;6.80;99.60;;;;;;5009240;28;20042;-74
2021/03/04 00:36:22;;;;;;;24.40;16.90;;;6.80;99.90;;;;;;5006977;28;20057;-74
2021/03/04 00:38:48;;;;;;;23.48;14.55;;;6.80;99.90;;;;;;5007912;28;20042;-74
2021/03/04 00:41:15;;;;;;;22.58;15.77;;;6.70;99.70;;;;;;5009118;28;20028;-74
2021/03/04 00:43:41;;;;;;;25.00;15.55;;;6.70;99.90;;;;;;5008775;28;21065;-74
2021/03/04 00:46:06;;;;;;;22.50;14.45;;;6.60;99.40;;;;;;5008197;28;20057;-74
2021/03/04 00:48:32;;;;;;;26.08;16.55;;;6.50;99.20;;;;;;5011392;28;20474;-74
2021/03/04 00:50:59;;;;;;;21.83;15.18;;;6.40;99.40;;;;;;5011823;28;20091;-74
2021/03/04 00:53:25;;;;;;;24.15;15.15;;;6.40;99.30;;;;;;5035442;28;20064;-74
2021/03/04 00:55:51;;;;;;;22.17;15.27;;;6.30;99.60;;;;;;5018123;28;20151;-74
2021/03/04 00:58:17;;;;;;;28.63;17.92;;;6.20;99.40;;;;;;5023079;28;20093;-74
2021/03/04 01:00:42;;;;;;;35.85;15.88;;;6.30;99.80;;;;;;5018047;28;20077;-74
2021/03/04 01:03:08;;;;;;;29.30;18.05;;;6.30;99.90;;;;;;5019415;28;20025;-74
2021/03/04 01:05:35;;;;;;;30.98;17.45;;;6.40;99.90;;;;;;5019716;28;20481;-74
2021/03/04 01:08:02;;;;;;;27.60;16.85;;;6.40;99.90;;;;;;5014168;28;20025;-74
2021/03/04 01:10:35;;;;;;;28.85;17.65;;;6.40;99.10;;;;;;5019879;28;20029;-74
2021/03/04 01:13:01;;;;;;;29.95;19.27;;;6.40;99.90;;;;;;5016229;28;20026;-74
2021/03/04 01:15:28;;;;;;;25.60;17.20;;;6.30;99.90;;;;;;5022632;28;20393;-74
2021/03/04 01:17:54;;;;;;;26.65;19.80;;;6.30;99.80;;;;;;5022852;28;20025;-74
2021/03/04 01:20:20;;;;;;;18.15;14.38;;;6.40;99.90;;;;;;5022259;28;20049;-74
2021/03/04 01:22:46;;;;;;;23.90;13.98;;;6.20;99.30;;;;;;5021512;28;20466;-74
2021/03/04 01:25:14;;;;;;;22.88;13.95;;;6.10;99.60;;;;;;5019126;28;20021;-74
2021/03/04 01:27:40;;;;;;;17.60;13.65;;;6.10;99.40;;;;;;5022277;28;20033;-74
2021/03/04 01:30:09;;;;;;;22.92;13.52;;;6.00;99.60;;;;;;5014990;28;20117;-74
2021/03/04 01:32:35;;;;;;;31.88;19.67;;;6.00;99.70;;;;;;5022125;28;20496;-74
2021/03/04 01:35:02;;;;;;;35.38;21.13;;;6.10;99.90;;;;;;5020264;28;20026;-74
2021/03/04 01:37:27;;;;;;;22.55;16.92;;;6.10;99.90;;;;;;5015449;28;20054;-74
2021/03/04 01:39:53;;;;;;;31.08;21.33;;;6.10;99.90;;;;;;5011624;28;20029;-74
2021/03/04 01:42:19;;;;;;;25.33;16.23;;;6.20;99.90;;;;;;5011995;28;20473;-74
2021/03/04 01:44:45;;;;;;;18.25;12.27;;;6.00;99.10;;;;;;5011879;28;20014;-74
2021/03/04 01:47:11;;;;;;;21.60;13.02;;;5.90;99.30;;;;;;5011932;28;20028;-74
2021/03/04 01:49:37;;;;;;;19.25;12.73;;;5.80;99.40;;;;;;5012079;28;20026;-74
2021/03/04 01:52:03;;;;;;;25.95;14.30;;;5.70;99.20;;;;;;5012176;28;20126;-74
2021/03/04 01:54:29;;;;;;;26.75;14.70;;;5.60;99.60;;;;;;5011934;28;20105;-74
2021/03/04 01:56:55;;;;;;;34.55;19.85;;;5.70;99.90;;;;;;5009240;28;20109;-74
2021/03/04 01:59:22;;;;;;;21.85;16.10;;;5.70;99.90;;;;;;5011454;28;20462;-74
2021/03/04 02:01:49;;;;;;;29.15;18.30;;;5.90;99.90;;;;;;5010666;28;20034;-74
2021/03/04 02:04:15;;;;;;;24.55;14.77;;;5.90;99.90;;;;;;5009109;28;20022;-74
2021/03/04 02:06:41;;;;;;;23.60;15.82;;;5.90;99.90;;;;;;5011858;28;20101;-74
2021/03/04 02:09:10;;;;;;;22.80;15.73;;;6.00;99.90;;;;;;5011084;28;20118;-74
2021/03/04 02:11:47;;;;;;;24.77;15.60;;;5.80;99.90;;;;;;5010754;28;20489;-74
2021/03/04 02:14:21;;;;;;;19.35;14.82;;;5.70;99.90;;;;;;5009063;28;20272;-74
2021/03/04 02:16:55;;;;;;;19.25;13.55;;;5.60;99.80;;;;;;5008404;28;20053;-74
2021/03/04 02:19:38;;;;;;;21.63;16.67;;;5.60;99.70;;;;;;5010493;28;20076;-74
2021/03/04 02:22:25;;;;;;;26.30;14.02;;;5.60;99.90;;;;;;5010752;28;20412;-74
2021/03/04 02:25:04;;;;;;;28.25;16.20;;;5.60;99.90;;;;;;5008953;28;20018;-74
2021/03/04 02:27:34;;;;;;;25.93;17.83;;;5.60;99.90;;;;;;5009511;28;20097;-74
2021/03/04 02:30:07;;;;;;;20.15;16.10;;;5.70;99.90;;;;;;5014782;28;20761;-73
2021/03/04 02:32:35;;;;;;;25.38;15.98;;;5.70;99.90;;;;;;5012891;28;20030;-74
2021/03/04 02:35:11;;;;;;;25.85;16.40;;;5.60;99.90;;;;;;5014671;28;20033;-74
2021/03/04 02:37:46;;;;;;;23.67;15.48;;;5.70;99.90;;;;;;5013070;28;20166;-74
2021/03/04 02:40:13;;;;;;;22.83;14.85;;;5.60;99.90;;;;;;5012871;28;20022;-74
2021/03/04 02:42:45;;;;;;;26.80;15.27;;;5.50;99.30;;;;;;5014001;28;20036;-74
2021/03/04 02:45:12;;;;;;;20.20;14.77;;;5.50;99.50;;;;;;5012584;28;20544;-74
2021/03/04 02:47:39;;;;;;;24.83;17.80;;;5.50;99.60;;;;;;5014297;28;20049;-74
2021/03/04 02:50:07;;;;;;;23.98;17.17;;;5.60;99.90;;;;;;5014436;28;20061;-74
2021/03/04 02:52:34;;;;;;;27.48;17.27;;;5.60;99.90;;;;;;5014199;28;20020;-74
2021/03/04 02:55:02;;;;;;;27.02;17.75;;;5.70;99.90;;;;;;5014358;28;20036;-74
2021/03/04 02:57:28;;;;;;;25.60;16.13;;;5.70;99.90;;;;;;5011393;28;20021;-74
2021/03/04 02:59:57;;;;;;;27.50;16.20;;;5.80;99.90;;;;;;5012909;28;20052;-74
2021/03/04 03:02:23;;;;;;;22.13;14.20;;;5.70;99.90;;;;;;5012770;28;20021;-74
2021/03/04 03:04:50;;;;;;;19.83;13.45;;;5.60;99.90;;;;;;5014121;28;20026;-74
2021/03/04 03:07:16;;;;;;;23.73;14.43;;;5.50;99.70;;;;;;5014102;28;20022;-74
2021/03/04 03:09:44;;;;;;;17.05;13.77;;;5.50;99.80;;;;;;5012379;28;20057;-74
2021/03/04 03:12:12;;;;;;;18.48;13.93;;;5.40;99.50;;;;;;5013705;28;20057;-74
2021/03/04 03:14:39;;;;;;;23.38;13.95;;;5.40;99.80;;;;;;5013844;28;20041;-74
2021/03/04 03:17:06;;;;;;;19.80;11.77;;;5.30;99.90;;;;;;5013720;28;20478;-74
2021/03/04 03:19:33;;;;;;;22.35;11.90;;;5.30;99.80;;;;;;5013813;28;20018;-74
2021/03/04 03:21:58;;;;;;;24.25;14.30;;;5.20;99.80;;;;;;5013903;28;20033;-74
2021/03/04 03:24:24;;;;;;;26.40;14.90;;;5.20;99.90;;;;;;5013656;28;20014;-74
2021/03/04 03:26:50;;;;;;;31.33;15.65;;;5.30;99.90;;;;;;5013380;28;20117;-74
2021/03/04 03:29:16;;;;;;;21.95;13.80;;;5.30;99.90;;;;;;5013627;28;20022;-74
2021/03/04 03:31:45;;;;;;;24.90;14.05;;;5.30;99.90;;;;;;5013520;28;20037;-74
2021/03/04 03:34:11;;;;;;;22.35;13.65;;;5.20;99.90;;;;;;5013678;28;20017;-74
2021/03/04 03:36:37;;;;;;;21.65;13.32;;;5.20;99.90;;;;;;5013236;28;20022;-74
2021/03/04 03:39:07;;;;;;;19.90;12.43;;;5.30;99.90;;;;;;5013188;28;20036;-74
2021/03/04 03:41:34;;;;;;;22.25;12.15;;;5.20;99.90;;;;;;5013089;28;20025;-74
2021/03/04 03:44:00;;;;;;;20.60;12.52;;;5.10;99.70;;;;;;5012152;28;20028;-73
2021/03/04 03:46:31;;;;;;;25.70;13.48;;;5.10;99.70;;;;;;5009530;28;20372;-74
2021/03/04 03:48:59;;;;;;;22.52;14.02;;;5.10;99.90;;;;;;5013477;28;20120;-74
2021/03/04 03:51:25;;;;;;;20.40;12.23;;;5.20;99.90;;;;;;5013405;28;20390;-74
2021/03/04 03:53:53;;;;;;;24.10;14.60;;;5.10;99.90;;;;;;5011816;28;20014;-74
2021/03/04 03:56:21;;;;;;;23.45;13.38;;;5.20;99.90;;;;;;5012856;28;20033;-74
2021/03/04 03:58:48;;;;;;;30.52;12.68;;;5.30;99.90;;;;;;5010582;28;20429;-74
2021/03/04 04:01:14;;;;;;;18.40;11.77;;;5.10;99.60;;;;;;5013217;28;20049;-74
2021/03/04 04:03:40;;;;;;;19.35;12.63;;;5.00;99.70;;;;;;5012905;28;20386;-74
2021/03/04 04:06:07;;;;;;;15.63;10.55;;;5.00;99.70;;;;;;5010488;28;20026;-74
2021/03/04 04:08:33;;;;;;;18.98;12.13;;;5.00;99.20;;;;;;5014248;28;20057;-74
2021/03/04 04:10:59;;;;;;;25.17;15.32;;;5.00;99.40;;;;;;5012483;28;20105;-73
2021/03/04 04:13:25;;;;;;;22.90;14.70;;;5.10;99.70;;;;;;5011563;28;20113;-73
2021/03/04 04:15:51;;;;;;;28.65;16.15;;;5.20;99.90;;;;;;5012658;28;20052;-74
2021/03/04 04:18:18;;;;;;;24.48;15.73;;;5.20;99.90;;;;;;5013079;28;20494;-74
2021/03/04 04:20:45;;;;;;;31.38;17.02;;;5.20;99.90;;;;;;5011374;28;20437;-74
2021/03/04 04:23:11;;;;;;;23.73;16.13;;;5.30;99.90;;;;;;5012613;28;20021;-74
2021/03/04 04:25:47;;;;;;;24.75;15.85;;;5.30;99.90;;;;;;5010978;28;20390;-74
2021/03/04 04:28:13;;;;;;;19.40;14.82;;;5.40;99.90;;;;;;5010833;28;20041;-74
2021/03/04 04:30:39;;;;;;;19.45;12.65;;;5.40;99.90;;;;;;5012473;28;20030;-74
2021/03/04 04:33:05;;;;;;;23.70;14.60;;;5.10;99.60;;;;;;5012480;28;20049;-74
2021/03/04 04:35:30;;;;;;;22.77;12.95;;;5.10;99.70;;;;;;5012423;28;20560;-74
2021/03/04 04:37:56;;;;;;;18.67;12.90;;;5.00;99.40;;;;;;5012205;28;20472;-74
2021/03/04 04:40:22;;;;;;;33.33;17.30;;;4.90;99.90;;;;;;5011893;28;20022;-74
2021/03/04 04:42:47;;;;;;;23.38;16.15;;;5.00;99.90;;;;;;5012291;28;20075;-74
2021/03/04 04:45:13;;;;;;;20.88;14.07;;;5.00;99.90;;;;;;5012295;28;20029;-74
2021/03/04 04:47:39;;;;;;;22.08;13.70;;;5.10;99.90;;;;;;5012116;28;20065;-74
2021/03/04 04:50:05;;;;;;;24.58;15.43;;;5.10;99.90;;;;;;5010264;28;20022;-74
2021/03/04 04:52:31;;;;;;;26.02;13.77;;;5.10;99.90;;;;;;5012076;28;20041;-74
2021/03/04 04:54:57;;;;;;;24.65;14.27;;;5.10;99.90;;;;;;5011870;28;20466;-73
2021/03/04 04:57:23;;;;;;;20.08;13.13;;;4.90;99.80;;;;;;5011995;28;20018;-74
2021/03/04 04:59:49;;;;;;;27.63;16.25;;;4.90;99.90;;;;;;5011746;28;20018;-74
2021/03/04 05:02:15;;;;;;;29.70;14.88;;;5.00;99.90;;;;;;5012084;28;20022;-74
2021/03/04 05:04:41;;;;;;;25.33;15.88;;;5.10;99.90;;;;;;5011840;28;20033;-74
2021/03/04 05:07:07;;;;;;;25.55;14.43;;;5.10;99.90;;;;;;5008848;28;20022;-74
2021/03/04 05:09:33;;;;;;;23.42;13.80;;;5.10;99.90;;;;;;5011720;28;20072;-75
2021/03/04 05:11:59;;;;;;;21.38;13.90;;;5.10;99.90;;;;;;5011671;28;20751;-74
2021/03/04 05:14:24;;;;;;;53.63;30.55;;;5.10;99.90;;;;;;5011758;28;20026;-74
2021/03/04 05:16:50;;;;;;;59.65;35.88;;;5.10;99.90;;;;;;5011581;28;20495;-74
2021/03/04 05:19:16;;;;;;;46.80;28.00;;;5.10;99.90;;;;;;5011755;28;20030;-74
2021/03/04 05:21:42;;;;;;;37.28;24.20;;;5.10;99.90;;;;;;5011021;28;20100;-74
2021/03/04 05:24:08;;;;;;;35.63;20.63;;;5.20;99.90;;;;;;5011616;28;20068;-74
2021/03/04 05:26:36;;;;;;;42.08;27.05;;;5.20;99.90;;;;;;5011409;28;20029;-74
2021/03/04 05:29:03;;;;;;;36.72;21.60;;;5.20;99.90;;;;;;5011337;28;20065;-74
2021/03/04 05:31:29;;;;;;;24.70;17.00;;;5.20;99.90;;;;;;5011748;28;20112;-74
2021/03/04 05:33:55;;;;;;;29.08;14.63;;;5.10;99.90;;;;;;5011125;28;20100;-74
2021/03/04 05:36:20;;;;;;;22.90;15.55;;;4.90;99.80;;;;;;5010160;28;20036;-74
2021/03/04 05:38:46;;;;;;;25.27;12.95;;;4.80;99.90;;;;;;5010625;28;20512;-74
2021/03/04 05:41:12;;;;;;;26.83;14.25;;;4.70;99.90;;;;;;5011152;28;20494;-74
2021/03/04 05:43:38;;;;;;;23.02;12.00;;;4.60;99.90;;;;;;5010958;28;20394;-74
2021/03/04 05:46:05;;;;;;;22.83;12.43;;;4.50;99.90;;;;;;5010639;28;20028;-74
2021/03/04 05:48:33;;;;;;;20.17;12.38;;;4.50;99.90;;;;;;5011014;28;20113;-74
2021/03/04 05:51:00;;;;;;;21.55;14.13;;;4.50;99.90;;;;;;5010933;28;20057;-74
2021/03/04 05:53:26;;;;;;;21.65;12.88;;;4.50;99.80;;;;;;5010590;28;20026;-74
2021/03/04 05:55:53;;;;;;;25.20;12.30;;;4.60;99.90;;;;;;5010236;28;20034;-73
2021/03/04 05:58:19;;;;;;;22.80;12.20;;;4.60;99.90;;;;;;5009415;28;20037;-73
2021/03/04 06:00:45;;;;;;;20.50;13.55;;;4.60;99.90;;;;;;5009538;28;20057;-74
2021/03/04 06:03:11;;;;;;;20.60;14.18;;;4.60;99.90;;;;;;5010254;28;20064;-74
2021/03/04 06:05:38;;;;;;;20.52;13.70;;;4.60;99.90;;;;;;5011359;28;20018;-74
2021/03/04 06:08:06;;;;;;;23.73;14.50;;;4.50;99.90;;;;;;5011563;28;20033;-78
2021/03/04 06:10:33;;;;;;;19.90;14.00;;;4.50;99.90;;;;;;5018125;28;20033;-74
2021/03/04 06:12:59;;;;;;;22.02;12.48;;;4.40;99.90;;;;;;5011128;28;20030;-74
2021/03/04 06:15:26;;;;;;;21.88;12.40;;;4.40;99.90;;;;;;5015087;28;20030;-73
2021/03/04 06:17:59;;;;;;;22.35;13.05;;;4.30;99.90;;;;;;5018631;28;20036;-74
2021/03/04 06:20:44;;;;;;;21.13;12.82;;;4.30;99.80;;;;;;5018747;28;20041;-74
2021/03/04 06:23:10;;;;;;;20.63;12.35;;;4.30;99.90;;;;;;5011355;28;20022;-74
2021/03/04 06:25:37;;;;;;;24.40;13.00;;;4.30;99.60;;;;;;5011263;28;20034;-74
2021/03/04 06:28:03;;;;;;;42.40;19.50;;;4.20;99.90;;;;;;5011232;28;20112;-74
2021/03/04 06:30:40;;;;;;;38.20;19.83;;;4.30;99.90;;;;;;5011074;28;20026;-73
2021/03/04 06:33:11;;;;;;;23.52;13.30;;;4.40;99.90;;;;;;5011929;28;20401;-74
2021/03/04 06:35:41;;;;;;;31.33;16.30;;;4.30;99.90;;;;;;5009853;28;20104;-73
2021/03/04 06:38:14;;;;;;;26.30;13.77;;;4.20;99.90;;;;;;5013432;28;20121;-74
2021/03/04 06:40:39;;;;;;;32.05;14.38;;;4.20;99.90;;;;;;5011848;28;20486;-74
2021/03/04 06:43:05;;;;;;;45.13;17.95;;;4.20;99.80;;;;;;5010253;28;20049;-74
2021/03/04 06:45:38;;;;;;;33.78;16.73;;;4.30;99.90;;;;;;5009485;28;20032;-73
2021/03/04 06:48:16;;;;;;;26.02;14.38;;;4.40;99.90;;;;;;5010413;28;20037;-73
2021/03/04 06:50:44;;;;;;;24.52;14.88;;;4.50;99.80;;;;;;5009378;28;20548;-73
2021/03/04 06:53:21;;;;;;;31.75;14.98;;;4.50;99.70;;;;;;5010375;28;20505;-74
2021/03/04 06:55:49;;;;;;;29.17;15.88;;;4.50;99.90;;;;;;5008201;28;20432;-74
2021/03/04 06:58:31;;;;;;;20.23;13.43;;;4.60;99.90;;;;;;5011669;28;20371;-74
2021/03/04 07:01:17;;;;;;;41.08;15.90;;;4.60;99.90;;;;;;5011002;28;20060;-73
2021/03/04 07:03:42;;;;;;;29.42;15.57;;;4.70;99.70;;;;;;5011116;28;20029;-73
2021/03/04 07:06:14;;;;;;;28.30;15.40;;;4.80;99.90;;;;;;5003861;28;20038;-73
2021/03/04 07:08:43;;;;;;;42.70;15.68;;;4.90;99.90;;;;;;5009188;28;20387;-74
2021/03/04 07:11:10;;;;;;;25.20;13.43;;;4.90;99.90;;;;;;5008209;28;20034;-73
2021/03/04 07:13:37;;;;;;;25.40;13.40;;;5.00;99.30;;;;;;5010225;28;20037;-74
2021/03/04 07:16:08;;;;;;;23.25;12.45;;;5.00;98.80;;;;;;5012942;28;20026;-74
2021/03/04 07:18:44;;;;;;;21.98;13.32;;;4.90;98.70;;;;;;5012318;28;20852;-74
2021/03/04 07:21:15;;;;;;;108.57;22.48;;;4.80;98.80;;;;;;5031698;28;20026;-73
2021/03/04 07:23:42;;;;;;;34.40;14.27;;;4.80;98.50;;;;;;5012838;28;20022;-73
2021/03/04 07:26:10;;;;;;;17.50;12.13;;;4.90;99.10;;;;;;5010408;28;20025;-73
2021/03/04 07:28:37;;;;;;;20.92;11.57;;;4.70;98.20;;;;;;5013872;28;20033;-73
2021/03/04 07:31:05;;;;;;;27.77;12.50;;;4.70;99.00;;;;;;5012818;28;20022;-74
2021/03/04 07:33:36;;;;;;;21.02;11.95;;;4.70;98.70;;;;;;5003469;28;20041;-71
2021/03/04 07:36:10;;;;;;;20.10;12.20;;;4.80;99.00;;;;;;5009832;28;20034;-73
2021/03/04 07:38:36;;;;;;;26.23;11.63;;;4.90;99.20;;;;;;5011673;28;20053;-73
2021/03/04 07:41:13;;;;;;;20.25;11.60;;;4.90;99.10;;;;;;5011902;28;20486;-73
2021/03/04 07:43:55;;;;;;;24.50;11.52;;;5.00;98.40;;;;;;5011236;28;20029;-73
2021/03/04 07:46:30;;;;;;;21.40;11.25;;;5.00;98.70;;;;;;5009597;28;20113;-73
2021/03/04 07:48:57;;;;;;;19.20;11.10;;;5.10;98.70;;;;;;5010956;28;20036;-73
2021/03/04 07:51:22;;;;;;;16.95;12.40;;;5.20;98.60;;;;;;5009942;28;20080;-73
2021/03/04 07:53:48;;;;;;;21.73;13.45;;;5.30;98.60;;;;;;5012517;28;20026;-73
2021/03/04 07:56:22;;;;;;;18.42;13.27;;;5.50;98.50;;;;;;5012618;28;20026;-73
2021/03/04 07:58:48;;;;;;;24.65;13.18;;;5.70;97.70;;;;;;5010370;28;20363;-73
2021/03/04 08:01:14;;;;;;;24.83;13.98;;;5.80;97.90;;;;;;5011723;28;20088;-73
2021/03/04 08:03:47;;;;;;;23.23;14.18;;;5.90;97.60;;;;;;5011357;28;20034;-73
2021/03/04 08:06:14;;;;;;;22.98;13.95;;;6.10;97.40;;;;;;5009930;28;20026;-73
2021/03/04 08:08:40;;;;;;;209.35;24.60;;;6.20;97.30;;;;;;5033016;28;20034;-73
2021/03/04 08:11:06;;;;;;;24.23;14.13;;;6.40;97.20;;;;;;5012006;28;20025;-73
2021/03/04 08:13:39;;;;;;;29.92;13.18;;;6.70;97.60;;;;;;5027142;28;20026;-73
2021/03/04 08:16:18;;;;;;;20.00;12.45;;;7.00;96.20;;;;;;5011476;28;20018;-73
2021/03/04 08:18:56;;;;;;;24.77;14.00;;;7.40;97.80;;;;;;5012456;28;20108;-73
2021/03/04 08:21:22;;;;;;;15.38;12.23;;;7.80;95.20;;;;;;5011406;28;20022;-73
2021/03/04 08:23:48;;;;;;;23.92;13.20;;;8.10;95.10;;;;;;5011552;28;20084;-73
2021/03/04 08:26:28;;;;;;;25.95;14.48;;;8.20;94.60;;;;;;5010568;28;20057;-73
2021/03/04 08:29:10;;;;;;;21.85;13.25;;;8.50;94.20;;;;;;5014429;28;20841;-73
2021/03/04 08:31:49;;;;;;;25.33;14.00;;;8.90;93.40;;;;;;5011753;28;20030;-74
2021/03/04 08:34:15;;;;;;;24.90;13.75;;;9.00;94.00;;;;;;5011325;28;20036;-74
2021/03/04 08:36:43;;;;;;;21.05;14.57;;;9.60;92.90;;;;;;5012276;28;20025;-74
2021/03/04 08:39:09;;;;;;;26.20;15.77;;;10.00;92.10;;;;;;5010223;28;20036;-73
2021/03/04 08:41:35;;;;;;;25.65;15.63;;;10.20;91.60;;;;;;5010886;28;20021;-74
2021/03/04 08:44:16;;;;;;;34.05;16.20;;;10.60;91.50;;;;;;5013733;28;20022;-73
2021/03/04 08:46:45;;;;;;;35.17;18.70;;;10.90;90.00;;;;;;5010593;28;20032;-74
2021/03/04 08:49:21;;;;;;;37.70;20.92;;;11.20;87.60;;;;;;5008808;28;20546;-74
2021/03/04 08:51:47;;;;;;;44.28;21.77;;;11.50;87.80;;;;;;5010702;28;20029;-73
2021/03/04 08:54:27;;;;;;;39.13;19.92;;;11.90;86.30;;;;;;5008704;28;20061;-74
2021/03/04 08:56:57;;;;;;;38.35;17.23;;;12.40;82.50;;;;;;5007222;28;20394;-73
2021/03/04 08:59:24;;;;;;;;;;;13.20;82.10;;;;;;5011376;28;20095;-73
2021/03/04 09:01:50;;;;;;;41.47;17.45;;;14.20;76.30;;;;;;5009901;28;20337;-71
2021/03/04 09:04:20;;;;;;;32.88;16.27;;;14.80;73.10;;;;;;5008165;28;20084;-71
2021/03/04 09:06:46;;;;;;;39.83;16.58;;;15.80;70.10;;;;;;5010300;28;20021;-71
2021/03/04 09:09:26;;;;;;;39.22;16.33;;;16.40;66.80;;;;;;5010301;28;20034;-72
2021/03/04 09:11:53;;;;;;;28.58;12.60;;;16.30;65.50;;;;;;5009514;28;20026;-72
2021/03/04 09:14:28;;;;;;;29.83;14.07;;;16.70;64.30;;;;;;5007102;28;20041;-71
2021/03/04 09:16:55;;;;;;;27.17;13.23;;;17.30;63.00;;;;;;5007982;28;20029;-72
2021/03/04 09:19:32;;;;;;;24.52;14.30;;;17.80;62.30;;;;;;5008846;28;20061;-72
2021/03/04 09:22:07;;;;;;;25.77;13.07;;;18.20;61.90;;;;;;5006983;28;20128;-72
2021/03/04 09:24:34;;;;;;;26.85;13.30;;;18.80;59.20;;;;;;5009435;28;20021;-72
2021/03/04 09:27:07;;;;;;;25.65;14.73;;;19.30;57.90;;;;;;5013304;28;20041;-72
2021/03/04 09:29:37;;;;;;;29.95;12.93;;;19.30;57.00;;;;;;5009697;28;20041;-72
2021/03/04 09:32:02;;;;;;;37.55;12.98;;;19.40;56.90;;;;;;5010654;28;20014;-72
2021/03/04 09:34:46;;;;;;;30.38;14.15;;;19.40;56.10;;;;;;5010107;28;20018;-72
2021/03/04 09:37:14;;;;;;;21.45;12.43;;;20.30;55.60;;;;;;5010794;28;20045;-72
2021/03/04 09:39:48;;;;;;;27.42;11.70;;;21.00;53.60;;;;;;5010069;28;20026;-72
2021/03/04 09:42:32;;;;;;;37.58;14.38;;;21.80;50.90;;;;;;5008061;28;20052;-72
2021/03/04 09:45:07;;;;;;;37.70;13.25;;;22.20;48.40;;;;;;5013741;28;20445;-72
2021/03/04 09:47:33;;;;;;;21.10;11.48;;;22.90;48.10;;;;;;5008415;28;20026;-72
2021/03/04 09:50:02;;;;;;;33.10;13.65;;;22.90;49.30;;;;;;5009083;28;20513;-72
2021/03/04 09:52:30;;;;;;;31.38;13.07;;;22.90;47.90;;;;;;5008327;28;20038;-72
2021/03/04 09:55:11;;;;;;;24.38;11.38;;;23.40;47.70;;;;;;5006562;28;20084;-73
2021/03/04 09:57:41;;;;;;;28.23;13.48;;;23.80;47.70;;;;;;5008494;28;20045;-73
2021/03/04 10:00:16;;;;;;;;;;;24.20;46.90;;;;;;5008282;28;20025;-73
2021/03/04 10:02:44;;;;;;;28.60;12.05;;;24.30;45.00;;;;;;5009826;28;19919;-73
2021/03/04 10:05:19;;;;;;;40.17;14.30;;;24.50;43.80;;;;;;5007030;28;20431;-73
2021/03/04 10:07:47;;;;;;;31.88;12.32;;;25.30;43.30;;;;;;5010617;28;20076;-73
2021/03/04 10:10:21;;;;;;;37.83;13.45;;;26.30;42.20;;;;;;5010534;28;20517;-73
2021/03/04 10:12:57;;;;;;;39.95;13.85;;;26.50;39.80;;;;;;5011631;28;20031;-73
2021/03/04 10:15:34;;;;;;;50.25;13.07;;;26.90;39.50;;;;;;5006283;28;20026;-75
2021/03/04 10:18:03;;;;;;;36.33;14.45;;;27.10;38.50;;;;;;5008505;28;20038;-74
2021/03/04 10:20:29;;;;;;;35.47;13.70;;;28.30;37.10;;;;;;5008815;28;20026;-75
2021/03/04 10:22:54;;;;;;;36.75;13.80;;;28.70;36.70;;;;;;5009513;28;20041;-75
2021/03/04 10:25:21;;;;;;;29.35;13.88;;;29.10;38.00;;;;;;5008794;28;20026;-74
2021/03/04 10:27:47;;;;;;;34.45;13.38;;;29.80;35.30;;;;;;5008881;28;20033;-73
2021/03/04 10:30:14;;;;;;;26.77;13.35;;;30.30;34.10;;;;;;5010446;28;20014;-74
2021/03/04 10:32:41;;;;;;;35.42;13.57;;;30.30;33.30;;;;;;5009522;28;20060;-73
2021/03/04 10:35:16;;;;;;;30.77;13.30;;;29.40;34.50;;;;;;5010340;28;20021;-73
2021/03/04 10:37:43;;;;;;;28.63;13.55;;;29.40;34.40;;;;;;5010573;28;20410;-74
2021/03/04 10:40:11;;;;;;;28.50;13.18;;;30.20;33.60;;;;;;5009899;28;20438;-74
2021/03/04 10:42:36;;;;;;;34.63;14.02;;;30.60;32.50;;;;;;5009558;28;20545;-74
2021/03/04 10:45:05;;;;;;;32.17;14.63;;;31.20;32.40;;;;;;5010518;28;20022;-74
2021/03/04 10:47:30;;;;;;;32.88;12.93;;;32.10;31.40;;;;;;5009818;28;20026;-74
2021/03/04 10:49:57;;;;;;;33.92;14.48;;;32.30;32.50;;;;;;5012939;28;20037;-74
2021/03/04 10:52:24;;;;;;;35.47;12.55;;;31.80;32.20;;;;;;5013590;28;20121;-74
2021/03/04 10:54:51;;;;;;;29.63;12.00;;;32.30;30.80;;;;;;5013748;28;20129;-74
2021/03/04 10:57:17;;;;;;;38.67;12.90;;;32.80;31.30;;;;;;5013575;28;20024;-74
2021/03/04 10:59:43;;;;;;;32.90;11.23;;;33.20;30.00;;;;;;5013837;28;20026;-74
2021/03/04 11:02:09;;;;;;;31.58;12.68;;;32.20;30.60;;;;;;5011789;28;20466;-74
2021/03/04 11:04:34;;;;;;;30.60;11.70;;;32.20;30.80;;;;;;5011732;28;20045;-75
2021/03/04 11:07:00;;;;;;;34.35;14.43;;;33.30;31.00;;;;;;5012101;28;20022;-75
2021/03/04 11:09:26;;;;;;;28.77;11.85;;;33.90;28.50;;;;;;5010154;28;20025;-75
2021/03/04 11:11:52;;;;;;;31.17;12.45;;;34.20;29.10;;;;;;5012354;28;20449;-75
2021/03/04 11:14:18;;;;;;;30.23;11.68;;;33.60;29.20;;;;;;5011713;28;20022;-75
2021/03/04 11:16:44;;;;;;;34.80;12.90;;;34.20;28.40;;;;;;5011506;28;20048;-75
2021/03/04 11:19:11;;;;;;;34.53;10.60;;;35.10;27.70;;;;;;5012818;28;20386;-75
2021/03/04 11:21:37;;;;;;;32.22;11.52;;;34.90;27.30;;;;;;5011212;28;20037;-75
2021/03/04 11:24:06;;;;;;;32.53;12.88;;;34.70;27.20;;;;;;5011965;28;20022;-75
2021/03/04 11:26:32;;;;;;;28.02;11.27;;;34.40;26.90;;;;;;5012274;28;20044;-75
2021/03/04 11:28:58;;;;;;;32.80;11.60;;;35.80;27.10;;;;;;5012413;28;20033;-75
2021/03/04 11:31:23;;;;;;;28.58;12.27;;;36.30;25.90;;;;;;5012715;28;20074;-75
2021/03/04 11:33:49;;;;;;;40.35;12.23;;;36.30;25.70;;;;;;5016003;28;20462;-75
2021/03/04 11:36:15;;;;;;;32.65;11.50;;;35.90;26.30;;;;;;5011118;28;20035;-75
2021/03/04 11:38:41;;;;;;;34.28;12.00;;;35.60;26.10;;;;;;5012382;28;20034;-75
2021/03/04 11:41:06;;;;;;;32.72;11.82;;;35.30;26.70;;;;;;5013028;28;20406;-76
2021/03/04 11:43:32;;;;;;;32.90;11.57;;;35.80;26.60;;;;;;5012451;28;20025;-75
2021/03/04 11:45:58;;;;;;;27.90;11.45;;;36.00;27.40;;;;;;5012834;28;20112;-76
2021/03/04 11:48:24;;;;;;;39.70;11.93;;;35.80;25.80;;;;;;5015000;28;20048;-76
2021/03/04 11:50:50;;;;;;;29.55;10.98;;;35.70;27.10;;;;;;5013642;28;20034;-75
2021/03/04 11:53:16;;;;;;;32.65;12.55;;;35.80;26.60;;;;;;5012620;28;20036;-75
2021/03/04 11:55:43;;;;;;;29.88;11.38;;;34.90;27.10;;;;;;5013641;28;20085;-75
2021/03/04 11:58:08;;;;;;;36.83;11.82;;;35.60;26.40;;;;;;5013441;28;20032;-75
2021/03/04 12:00:34;;;;;;;28.67;12.40;;;36.90;25.70;;;;;;5010039;28;20041;-75
2021/03/04 12:03:00;;;;;;;36.30;12.52;;;37.80;25.30;;;;;;5013723;28;20030;-76
2021/03/04 12:05:25;;;;;;;28.15;10.77;;;38.50;25.10;;;;;;5012783;28;20037;-75
2021/03/04 12:07:51;;;;;;;29.38;11.10;;;38.20;26.50;;;;;;5017187;28;20037;-75
2021/03/04 12:10:17;;;;;;;34.00;11.52;;;37.90;26.30;;;;;;5014878;28;20037;-75
2021/03/04 12:12:43;;;;;;;28.25;11.30;;;37.70;25.50;;;;;;5008545;28;20032;-75
2021/03/04 12:15:09;;;;;;;28.85;11.50;;;38.30;25.50;;;;;;5013010;28;20022;-74
2021/03/04 12:17:35;;;;;;;44.72;12.35;;;38.70;26.20;;;;;;5011820;28;20139;-75
2021/03/04 12:20:03;;;;;;;37.13;11.70;;;38.80;26.80;;;;;;5010306;28;20026;-75
2021/03/04 12:22:28;;;;;;;33.63;13.63;;;38.50;26.20;;;;;;5009158;28;20029;-75
2021/03/04 12:24:54;;;;;;;26.45;11.80;;;38.60;27.40;;;;;;5008978;28;20033;-75
2021/03/04 12:27:20;;;;;;;30.88;11.80;;;37.90;26.00;;;;;;5012492;28;20033;-75
2021/03/04 12:29:46;;;;;;;32.35;11.70;;;38.10;25.90;;;;;;5012598;28;20037;-75
2021/03/04 12:32:11;;;;;;;30.58;10.73;;;38.40;25.70;;;;;;5010269;28;20034;-75
2021/03/04 12:34:37;;;;;;;28.25;11.60;;;38.50;26.20;;;;;;5010430;28;20046;-75
2021/03/04 12:37:03;;;;;;;30.42;10.60;;;38.40;26.40;;;;;;5013448;28;20044;-75
2021/03/04 12:39:28;;;;;;;42.72;13.75;;;38.40;27.40;;;;;;5011559;28;20109;-75